Pagina principale
METAR-TAF:

METAR-TAF

Aeroporti :

Seward, Alaska, Stati Uniti

latitudine: 60-07N, longitudine: 149-27W, altezza: 9 m

Osservazione

Il bollettino è stato emesso 53 minuti fa, alle 14:53 UTC
Vento calmo
Temperature 4°C
Umidità 93%
Pressione 1012 hPa
Visibilità: 16.1 km
Cielo coperto ad un'altezza di 4500 ft
pioggia debole

METAR: PAWD 221453Z AUTO 00000KT 10SM -RA OVC045 04/03 A2989 RMK AO2 RAB45 SLP120 P0000 60000 T00440028 56015 TSNO

Ora: 07:46 (15:46 UTC)


TAF: mancante

Osservazioni e previsioni meteorologiche di più di 4000 aeroporti (messaggi METAR e TAF).

Le stazioni disponibili sono rappresentate dai dischi gialli e rossi sulla carta.

Puntare il mouse per vedere il nome della stazione.

Clicca sopra per visualizzare le osservazioni e previsioni meteorologiche.

Per cambiare la mappa : fare clic sui pulsanti verdi con una croce nera per ingrandire, il pulsante verde con un trattino per diminuire, o sulla freccia verde per le mappe adiacenti.


METAR-TAF: